Time;durP1;ratioP1;P1;durP2;ratioP2;P2;SDS_P1;SDS_P2;PMS_P1;PMS_P2;Temp;Humidity;BMP_temperature;BMP_pressure;BME280_temperature;BME280_humidity;BME280_pressure;Samples;Min_cycle;Max_cycle;Signal;HPM_P1;HPM_P2
2023/01/29 00:01:49;;;;;;;;;;;;;;;7.89;46.16;100232.28;4468203;32;34378;-67
2023/01/29 00:04:17;;;;;;;;;;;;;;;7.88;45.76;100229.72;4467539;32;33225;-65
2023/01/29 00:06:44;;;;;;;;;;;;;;;8.11;45.56;100223.94;4479145;32;33851;-66
2023/01/29 00:09:12;;;;;;;;;;;;;;;8.24;45.00;100228.56;4473938;32;35247;-66
2023/01/29 00:11:39;;;;;;;;;;;;;;;7.72;46.44;100227.03;4477295;32;34552;-65
2023/01/29 00:14:07;;;;;;;;;;;;;;;8.19;45.14;100233.31;4476458;32;33047;-65
2023/01/29 00:16:34;;;;;;;;;;;;;;;7.69;46.74;100235.19;4478856;32;34197;-65
2023/01/29 00:19:02;;;;;;;;;;;;;;;7.98;45.74;100238.91;4469465;32;35538;-66
2023/01/29 00:21:29;;;;;;;;;;;;;;;7.53;46.87;100248.50;4480153;32;35311;-65
2023/01/29 00:23:57;;;;;;;;;;;;;;;7.53;46.59;100250.28;4484054;32;33445;-65
2023/01/29 00:26:25;;;;;;;;;;;;;;;7.92;46.26;100245.44;4480207;32;34060;-65
2023/01/29 00:28:52;;;;;;;;;;;;;;;8.03;45.51;100244.84;4468502;32;34297;-66
2023/01/29 00:31:20;;;;;;;;;;;;;;;8.13;45.85;100255.84;4471075;32;34407;-65
2023/01/29 00:33:48;;;;;;;;;;;;;;;8.05;45.56;100258.94;4466553;32;33414;-65
2023/01/29 00:36:17;;;;;;;;;;;;;;;8.00;45.86;100260.16;4473480;32;35076;-66
2023/01/29 00:38:53;;;;;;;;;;;;;;;7.88;45.87;100259.03;4474245;32;34480;-67
2023/01/29 00:46:53;;;;;;;;;;;;;;;8.08;45.86;100258.75;4473874;32;33735;-66
2023/01/29 00:49:21;;;;;;;;;;;;;;;8.10;45.41;100264.88;4476022;32;33990;-65
2023/01/29 00:54:35;;;;;;;;;;;;;;;8.25;44.83;100270.28;4476728;32;33724;-65
2023/01/29 00:57:03;;;;;;;;;;;;;;;8.40;44.07;100266.78;4474960;32;34138;-65
2023/01/29 00:59:31;;;;;;;;;;;;;;;7.93;45.68;100276.50;4468410;32;34212;-68
2023/01/29 01:04:44;;;;;;;;;;;;;;;8.24;44.50;100260.56;4478294;32;33308;-66
2023/01/29 01:07:11;;;;;;;;;;;;;;;8.21;44.64;100269.59;4471483;32;35005;-65
2023/01/29 01:12:24;;;;;;;;;;;;;;;8.12;45.55;100268.34;4472054;32;34424;-66
2023/01/29 01:14:51;;;;;;;;;;;;;;;8.21;44.27;100266.06;4483396;32;33029;-65
2023/01/29 01:17:18;;;;;;;;;;;;;;;8.33;43.77;100265.38;4467437;32;32834;-64
2023/01/29 01:19:46;;;;;;;;;;;;;;;8.25;44.02;100260.50;4468420;32;35519;-66
2023/01/29 01:22:13;;;;;;;;;;;;;;;8.28;43.94;100265.66;4469709;32;34547;-65
2023/01/29 01:24:41;;;;;;;;;;;;;;;8.23;44.12;100272.19;4482934;32;33264;-65
2023/01/29 01:27:08;;;;;;;;;;;;;;;8.19;44.45;100271.50;4477088;32;34334;-66
2023/01/29 01:29:35;;;;;;;;;;;;;;;8.31;43.83;100272.59;4472679;32;34571;-65
2023/01/29 01:32:03;;;;;;;;;;;;;;;8.29;43.84;100269.19;4483423;32;34389;-67
2023/01/29 01:34:30;;;;;;;;;;;;;;;8.00;45.02;100269.00;4478323;32;33502;-66
2023/01/29 01:36:57;;;;;;;;;;;;;;;8.21;44.13;100274.94;4471601;32;34301;-65
2023/01/29 01:39:25;;;;;;;;;;;;;;;8.27;43.86;100271.91;4467623;32;34073;-66
2023/01/29 01:41:52;;;;;;;;;;;;;;;8.40;43.76;100275.63;4474240;32;35461;-65
2023/01/29 01:44:38;;;;;;;;;;;;;;;8.47;43.45;100276.12;4483092;32;34677;-65
2023/01/29 01:47:06;;;;;;;;;;;;;;;8.39;43.71;100275.75;4473289;32;34087;-65
2023/01/29 01:49:33;;;;;;;;;;;;;;;8.33;43.36;100286.72;4464805;32;34151;-66
2023/01/29 01:52:00;;;;;;;;;;;;;;;8.43;43.42;100282.59;4474738;32;33256;-67
2023/01/29 01:54:27;;;;;;;;;;;;;;;8.46;43.27;100285.09;4469681;32;33705;-65
2023/01/29 01:57:03;;;;;;;;;;;;;;;8.13;44.21;100283.38;4457199;32;34159;-67
2023/01/29 01:59:31;;;;;;;;;;;;;;;8.24;43.79;100293.41;4475066;32;33367;-66
2023/01/29 02:10:17;;;;;;;;;;;;;;;8.22;43.66;100291.78;4461649;32;34258;-66
2023/01/29 02:12:45;;;;;;;;;;;;;;;8.16;43.47;100293.00;4469603;32;34395;-66
2023/01/29 02:15:15;;;;;;;;;;;;;;;7.78;44.59;100288.00;4468196;32;35308;-66
2023/01/29 02:17:46;;;;;;;;;;;;;;;8.16;43.54;100293.88;4469332;32;35187;-65
2023/01/29 02:20:17;;;;;;;;;;;;;;;8.12;43.56;100292.31;4469192;32;33964;-67
2023/01/29 02:22:54;;;;;;;;;;;;;;;8.04;43.48;100294.53;4471697;31;34408;-65
2023/01/29 02:25:29;;;;;;;;;;;;;;;7.89;44.37;100296.25;4475361;32;33381;-65
2023/01/29 02:27:56;;;;;;;;;;;;;;;7.94;44.01;100301.34;4476754;32;35004;-66
2023/01/29 02:30:26;;;;;;;;;;;;;;;7.40;45.92;100298.03;4476603;32;33612;-66
2023/01/29 02:32:58;;;;;;;;;;;;;;;6.71;47.37;100294.47;4482500;31;34651;-66
2023/01/29 02:35:28;;;;;;;;;;;;;;;7.66;44.78;100300.16;4455290;32;32444;-65
2023/01/29 02:38:16;;;;;;;;;;;;;;;7.94;44.24;100302.19;4480378;32;33859;-65
2023/01/29 02:40:54;;;;;;;;;;;;;;;7.86;44.07;100300.88;4477984;32;34438;-66
2023/01/29 02:43:26;;;;;;;;;;;;;;;7.72;44.10;100300.78;4453121;32;35142;-66
2023/01/29 02:45:53;;;;;;;;;;;;;;;7.94;43.60;100306.66;4452426;32;33320;-66
2023/01/29 02:48:23;;;;;;;;;;;;;;;8.00;43.63;100308.16;4479617;31;34812;-68
2023/01/29 02:50:54;;;;;;;;;;;;;;;8.07;43.44;100313.03;4457935;32;34344;-67
2023/01/29 02:53:43;;;;;;;;;;;;;;;7.89;43.69;100316.72;4472329;32;34339;-66
2023/01/29 02:56:10;;;;;;;;;;;;;;;7.93;43.40;100318.28;4453019;32;33085;-65
2023/01/29 02:58:48;;;;;;;;;;;;;;;8.09;43.05;100316.50;4465436;32;34321;-66
2023/01/29 03:01:23;;;;;;;;;;;;;;;8.03;43.18;100323.97;4462835;32;33775;-67
2023/01/29 03:03:52;;;;;;;;;;;;;;;8.13;42.73;100322.50;4455891;32;35499;-66
2023/01/29 03:06:21;;;;;;;;;;;;;;;7.99;42.83;100327.72;4458734;32;32957;-67
2023/01/29 03:08:50;;;;;;;;;;;;;;;8.26;42.23;100320.03;4457690;32;34558;-67
2023/01/29 03:11:17;;;;;;;;;;;;;;;8.04;42.96;100323.88;4458245;32;34641;-67
2023/01/29 03:13:58;;;;;;;;;;;;;;;7.27;44.78;100318.25;4466805;32;34117;-68
2023/01/29 03:16:29;;;;;;;;;;;;;;;7.90;43.62;100319.31;4453786;32;33431;-67
2023/01/29 03:19:02;;;;;;;;;;;;;;;7.96;43.39;100325.22;4480026;32;33269;-68
2023/01/29 03:21:50;;;;;;;;;;;;;;;8.09;42.78;100323.59;4460157;32;34063;-67
2023/01/29 03:33:03;;;;;;;;;;;;;;;7.72;44.13;100325.63;4466369;32;35497;-68
2023/01/29 03:35:34;;;;;;;;;;;;;;;7.94;43.70;100330.66;4455106;32;34631;-66
2023/01/29 03:38:02;;;;;;;;;;;;;;;7.90;43.83;100334.44;4457861;32;33051;-66
2023/01/29 03:40:33;;;;;;;;;;;;;;;7.28;44.92;100339.47;4476530;32;34162;-66
2023/01/29 03:43:12;;;;;;;;;;;;;;;7.92;43.73;100337.88;4480062;31;33910;-69
2023/01/29 03:46:07;;;;;;;;;;;;;;;7.56;45.42;100336.22;4474397;32;34772;-64
2023/01/29 03:48:36;;;;;;;;;;;;;;;7.40;45.34;100343.31;4444166;32;34686;-65
2023/01/29 03:51:04;;;;;;;;;;;;;;;7.49;44.76;100348.16;4459244;32;35204;-65
2023/01/29 03:53:41;;;;;;;;;;;;;;;7.58;44.73;100349.50;4480343;32;34142;-68
2023/01/29 03:56:20;;;;;;;;;;;;;;;8.05;43.84;100348.72;4475578;32;34646;-67
2023/01/29 03:58:50;;;;;;;;;;;;;;;8.14;43.12;100349.06;4475217;31;32297;-65
2023/01/29 04:01:19;;;;;;;;;;;;;;;8.04;43.87;100347.00;4482182;32;34019;-66
2023/01/29 04:03:46;;;;;;;;;;;;;;;7.99;44.06;100347.25;4481901;32;35472;-65
2023/01/29 04:06:24;;;;;;;;;;;;;;;7.92;44.74;100354.72;4479106;32;34612;-65
2023/01/29 04:08:58;;;;;;;;;;;;;;;8.21;43.46;100349.59;4482142;32;33439;-65
2023/01/29 04:11:25;;;;;;;;;;;;;;;8.36;43.04;100342.56;4477896;32;35278;-65
2023/01/29 04:13:53;;;;;;;;;;;;;;;7.56;46.05;100343.38;4458010;32;34292;-65
2023/01/29 04:16:21;;;;;;;;;;;;;;;8.26;43.34;100346.69;4469539;32;34348;-66
2023/01/29 04:18:49;;;;;;;;;;;;;;;8.16;43.00;100339.19;4482208;32;33662;-68
2023/01/29 04:21:17;;;;;;;;;;;;;;;8.23;43.69;100338.84;4476677;31;34474;-67
2023/01/29 04:23:45;;;;;;;;;;;;;;;8.23;43.09;100341.53;4460746;32;35266;-66
2023/01/29 04:26:30;;;;;;;;;;;;;;;7.97;44.09;100346.50;4467030;32;34537;-66
2023/01/29 04:29:06;;;;;;;;;;;;;;;8.42;42.64;100344.06;4482759;32;34572;-67
2023/01/29 04:31:38;;;;;;;;;;;;;;;8.28;42.74;100343.00;4470837;32;33819;-66
2023/01/29 04:34:16;;;;;;;;;;;;;;;7.98;43.68;100336.69;4453857;32;34164;-66
2023/01/29 04:36:55;;;;;;;;;;;;;;;7.94;43.49;100333.31;4468128;32;34738;-67
2023/01/29 04:39:30;;;;;;;;;;;;;;;7.69;44.08;100342.63;4446899;32;33277;-69
2023/01/29 04:41:58;;;;;;;;;;;;;;;8.10;43.23;100347.53;4441051;32;33895;-69
2023/01/29 04:44:34;;;;;;;;;;;;;;;8.46;42.37;100346.47;4462905;32;34506;-66
2023/01/29 04:47:04;;;;;;;;;;;;;;;8.09;43.20;100345.81;4450004;32;34551;-67
2023/01/29 04:49:39;;;;;;;;;;;;;;;7.87;43.69;100343.47;4435759;32;33565;-67
2023/01/29 04:52:08;;;;;;;;;;;;;;;8.21;43.21;100354.06;4449658;32;35252;-67
2023/01/29 04:54:35;;;;;;;;;;;;;;;8.40;42.38;100354.81;4434401;32;35512;-68
2023/01/29 04:57:02;;;;;;;;;;;;;;;8.39;42.44;100347.75;4436031;32;34377;-67
2023/01/29 04:59:31;;;;;;;;;;;;;;;8.34;42.71;100349.78;4459611;32;34106;-65
2023/01/29 05:01:59;;;;;;;;;;;;;;;8.53;42.04;100341.63;4448765;32;35080;-67
2023/01/29 05:04:26;;;;;;;;;;;;;;;8.58;41.64;100351.09;4433612;32;34226;-67
2023/01/29 05:06:54;;;;;;;;;;;;;;;7.83;44.22;100349.03;4449768;32;35141;-65
2023/01/29 05:09:21;;;;;;;;;;;;;;;7.98;43.44;100348.19;4467050;32;33574;-65
2023/01/29 05:11:48;;;;;;;;;;;;;;;8.15;43.09;100347.25;4453893;32;35316;-66
2023/01/29 05:14:16;;;;;;;;;;;;;;;7.90;43.45;100351.28;4444336;32;35270;-63
2023/01/29 05:16:44;;;;;;;;;;;;;;;8.23;43.08;100349.53;4436174;32;35493;-65
2023/01/29 05:19:12;;;;;;;;;;;;;;;8.11;43.33;100357.25;4448381;32;33270;-66
2023/01/29 05:21:41;;;;;;;;;;;;;;;7.94;44.48;100352.84;4444385;32;32722;-65
2023/01/29 05:24:15;;;;;;;;;;;;;;;8.00;43.97;100351.66;4454267;32;33983;-66
2023/01/29 05:29:29;;;;;;;;;;;;;;;8.29;44.32;100344.72;4449136;32;33629;-71
2023/01/29 05:31:56;;;;;;;;;;;;;;;8.03;44.23;100340.81;4444940;32;34487;-65
2023/01/29 05:34:23;;;;;;;;;;;;;;;8.17;44.52;100337.38;4446474;32;34279;-66
2023/01/29 05:36:51;;;;;;;;;;;;;;;8.57;43.09;100344.06;4445058;32;32494;-66
2023/01/29 05:39:18;;;;;;;;;;;;;;;8.13;43.97;100343.84;4468596;32;33534;-66
2023/01/29 05:41:45;;;;;;;;;;;;;;;8.23;43.89;100347.72;4482240;32;34242;-66
2023/01/29 05:44:13;;;;;;;;;;;;;;;7.56;47.10;100349.56;4466573;32;33067;-66
2023/01/29 05:46:40;;;;;;;;;;;;;;;7.99;44.99;100347.25;4472938;32;33226;-66
2023/01/29 05:49:07;;;;;;;;;;;;;;;7.90;45.97;100345.09;4478831;32;33238;-66
2023/01/29 05:51:34;;;;;;;;;;;;;;;8.10;44.68;100347.53;4479625;32;34119;-67
2023/01/29 05:54:02;;;;;;;;;;;;;;;7.78;44.75;100351.09;4470203;32;34125;-67
2023/01/29 05:56:29;;;;;;;;;;;;;;;8.17;45.76;100351.56;4467384;32;34380;-66
2023/01/29 05:58:56;;;;;;;;;;;;;;;8.28;44.18;100353.66;4475734;31;33604;-68
2023/01/29 06:01:24;;;;;;;;;;;;;;;8.20;44.36;100360.38;4477655;32;35018;-66
2023/01/29 06:03:52;;;;;;;;;;;;;;;7.44;47.07;100355.50;4470609;32;34318;-66
2023/01/29 06:06:19;;;;;;;;;;;;;;;8.03;44.94;100347.97;4473960;32;33953;-68
2023/01/29 06:08:46;;;;;;;;;;;;;;;7.94;45.06;100359.97;4467692;32;35046;-65
2023/01/29 06:11:13;;;;;;;;;;;;;;;7.87;45.31;100362.13;4470126;32;32934;-65
2023/01/29 06:13:41;;;;;;;;;;;;;;;8.33;44.22;100356.06;4465963;32;35190;-66
2023/01/29 06:16:08;;;;;;;;;;;;;;;7.49;46.32;100366.81;4477482;32;34419;-66
2023/01/29 06:18:36;;;;;;;;;;;;;;;8.17;44.67;100366.72;4471559;32;33681;-66
2023/01/29 06:21:05;;;;;;;;;;;;;;;7.46;46.05;100366.97;4464231;32;34324;-66
2023/01/29 06:23:32;;;;;;;;;;;;;;;8.14;45.54;100372.22;4467632;32;34149;-70
2023/01/29 06:26:00;;;;;;;;;;;;;;;7.88;45.65;100379.81;4465281;32;33274;-66
2023/01/29 06:28:27;;;;;;;;;;;;;;;8.15;44.68;100381.94;4474269;32;34727;-66
2023/01/29 06:30:58;;;;;;;;;;;;;;;8.26;44.71;100384.88;4465926;32;34423;-66
2023/01/29 06:33:42;;;;;;;;;;;;;;;7.61;47.41;100392.81;4471196;32;34263;-66
2023/01/29 06:36:09;;;;;;;;;;;;;;;7.47;45.96;100392.66;4463375;32;34798;-65
2023/01/29 06:38:37;;;;;;;;;;;;;;;7.95;46.01;100401.69;4469429;32;33456;-66
2023/01/29 06:41:11;;;;;;;;;;;;;;;7.37;46.66;100402.91;4472493;32;34317;-67
2023/01/29 06:43:38;;;;;;;;;;;;;;;7.64;45.90;100411.31;4465871;32;34733;-66
2023/01/29 06:46:06;;;;;;;;;;;;;;;7.37;47.82;100404.72;4478877;32;34239;-66
2023/01/29 06:48:34;;;;;;;;;;;;;;;7.37;47.36;100416.22;4477437;31;33798;-67
2023/01/29 06:51:02;;;;;;;;;;;;;;;7.19;46.95;100418.03;4467989;32;34614;-67
2023/01/29 06:53:29;;;;;;;;;;;;;;;7.48;46.79;100410.37;4466779;32;34112;-66
2023/01/29 06:55:57;;;;;;;;;;;;;;;7.37;46.35;100410.03;4466715;32;34776;-66
2023/01/29 06:58:24;;;;;;;;;;;;;;;6.73;47.77;100416.75;4466808;32;32904;-67
2023/01/29 07:00:51;;;;;;;;;;;;;;;6.32;49.36;100416.91;4467916;32;34330;-66
2023/01/29 07:03:19;;;;;;;;;;;;;;;7.26;46.64;100412.41;4468435;32;35224;-66
2023/01/29 07:05:50;;;;;;;;;;;;;;;7.53;45.60;100408.31;4464601;32;34638;-66
2023/01/29 07:08:18;;;;;;;;;;;;;;;7.02;46.95;100410.00;4471611;32;33523;-68
2023/01/29 07:10:45;;;;;;;;;;;;;;;7.66;45.45;100405.88;4477323;31;34179;-65
2023/01/29 07:13:12;;;;;;;;;;;;;;;7.42;45.73;100405.34;4477190;32;34119;-66
2023/01/29 07:15:39;;;;;;;;;;;;;;;7.20;46.14;100406.44;4466632;32;33541;-66
2023/01/29 07:18:11;;;;;;;;;;;;;;;7.23;47.35;100405.44;4467278;32;33745;-66
2023/01/29 07:20:39;;;;;;;;;;;;;;;7.52;44.99;100401.28;4454034;32;35088;-65
2023/01/29 07:23:08;;;;;;;;;;;;;;;6.63;47.70;100408.34;4469099;32;34502;-67
2023/01/29 07:25:35;;;;;;;;;;;;;;;7.33;47.07;100403.16;4453160;32;35192;-68
2023/01/29 07:28:03;;;;;;;;;;;;;;;7.21;46.14;100405.50;4473325;32;34086;-67
2023/01/29 07:30:30;;;;;;;;;;;;;;;7.31;45.20;100402.38;4473411;32;35149;-70
2023/01/29 07:33:01;;;;;;;;;;;;;;;7.04;47.31;100407.28;4479454;32;34193;-67
2023/01/29 07:35:29;;;;;;;;;;;;;;;6.63;47.05;100403.03;4472034;32;34571;-69
2023/01/29 07:37:56;;;;;;;;;;;;;;;7.23;45.69;100390.31;4471297;32;33662;-68
2023/01/29 07:40:23;;;;;;;;;;;;;;;7.44;45.28;100387.47;4466380;32;32926;-67
2023/01/29 07:42:50;;;;;;;;;;;;;;;7.21;46.55;100380.66;4477906;31;34518;-68
2023/01/29 07:45:18;;;;;;;;;;;;;;;7.33;44.89;100381.84;4468793;32;32591;-66
2023/01/29 07:47:45;;;;;;;;;;;;;;;7.03;46.69;100377.16;4476539;32;33589;-67
2023/01/29 07:50:12;;;;;;;;;;;;;;;7.87;43.46;100374.59;4474151;32;34153;-65
2023/01/29 07:52:40;;;;;;;;;;;;;;;7.03;46.12;100374.50;4472290;32;34460;-66
2023/01/29 07:55:07;;;;;;;;;;;;;;;7.66;43.95;100377.44;4469276;32;35245;-66
2023/01/29 07:57:35;;;;;;;;;;;;;;;6.73;45.93;100375.03;4467107;32;33465;-67
2023/01/29 08:00:03;;;;;;;;;;;;;;;7.51;44.48;100386.22;4474333;32;34763;-67
2023/01/29 08:02:38;;;;;;;;;;;;;;;7.27;45.48;100388.34;4469330;32;34097;-66
2023/01/29 08:05:06;;;;;;;;;;;;;;;7.20;45.04;100390.47;4465618;32;35043;-66
2023/01/29 08:07:33;;;;;;;;;;;;;;;7.77;43.89;100387.53;4478151;32;34453;-67
2023/01/29 08:10:00;;;;;;;;;;;;;;;7.58;45.12;100376.97;4480314;32;34305;-68
2023/01/29 08:12:28;;;;;;;;;;;;;;;7.81;44.43;100382.91;4481822;32;35415;-68
2023/01/29 08:14:55;;;;;;;;;;;;;;;7.37;44.79;100384.28;4468672;32;34407;-66
2023/01/29 08:17:22;;;;;;;;;;;;;;;7.82;43.74;100384.62;4467054;32;34525;-69
2023/01/29 08:19:50;;;;;;;;;;;;;;;7.47;44.41;100387.31;4465622;32;34217;-66
2023/01/29 08:22:17;;;;;;;;;;;;;;;6.72;45.39;100385.78;4465583;32;35799;-66
2023/01/29 08:24:44;;;;;;;;;;;;;;;6.44;46.33;100380.91;4470584;32;35268;-66
2023/01/29 08:27:26;;;;;;;;;;;;;;;6.63;46.73;100397.72;4472358;32;33441;-67
2023/01/29 08:29:53;;;;;;;;;;;;;;;6.37;47.48;100390.97;4473571;32;34514;-66
2023/01/29 08:32:20;;;;;;;;;;;;;;;6.73;45.71;100391.00;4482018;31;34252;-66
2023/01/29 08:34:48;;;;;;;;;;;;;;;6.88;45.59;100404.53;4471839;32;33905;-67
2023/01/29 08:37:15;;;;;;;;;;;;;;;7.35;44.12;100403.94;4479833;32;34808;-67
2023/01/29 08:39:42;;;;;;;;;;;;;;;7.55;44.08;100409.13;4465458;32;34502;-68
2023/01/29 08:42:10;;;;;;;;;;;;;;;7.61;43.45;100416.78;4466854;32;33072;-66
2023/01/29 08:44:37;;;;;;;;;;;;;;;7.43;43.66;100410.59;4474969;32;35440;-67
2023/01/29 08:47:04;;;;;;;;;;;;;;;6.76;45.37;100412.16;4473130;31;33873;-67
2023/01/29 08:49:32;;;;;;;;;;;;;;;7.09;44.57;100414.09;4475226;32;33517;-67
2023/01/29 08:51:59;;;;;;;;;;;;;;;6.90;45.96;100422.16;4467171;32;32596;-67
2023/01/29 08:54:29;;;;;;;;;;;;;;;6.18;48.03;100428.19;4467033;32;34632;-67
2023/01/29 08:56:56;;;;;;;;;;;;;;;6.47;45.89;100425.97;4472183;32;34593;-67
2023/01/29 08:59:23;;;;;;;;;;;;;;;6.62;46.63;100430.59;4476288;32;32812;-67
2023/01/29 09:01:51;;;;;;;;;;;;;;;6.05;48.89;100433.19;4473676;32;35518;-67
2023/01/29 09:04:18;;;;;;;;;;;;;;;5.92;46.09;100441.78;4468419;32;35497;-67
2023/01/29 09:06:45;;;;;;;;;;;;;;;6.20;48.51;100441.44;4467400;32;34658;-67
2023/01/29 09:09:13;;;;;;;;;;;;;;;5.14;48.46;100443.31;4474855;32;34263;-67
2023/01/29 09:11:40;;;;;;;;;;;;;;;5.07;50.00;100450.69;4471044;32;35892;-67
2023/01/29 09:14:08;;;;;;;;;;;;;;;4.98;49.06;100445.75;4471831;31;34409;-66
2023/01/29 09:16:35;;;;;;;;;;;;;;;5.28;48.61;100448.91;4471604;32;34685;-67
2023/01/29 09:19:03;;;;;;;;;;;;;;;5.40;47.90;100438.72;4467054;32;34418;-64
2023/01/29 09:21:30;;;;;;;;;;;;;;;5.68;47.42;100443.69;4468230;32;35163;-67
2023/01/29 09:23:57;;;;;;;;;;;;;;;5.47;50.24;100450.81;4467818;32;34692;-67
2023/01/29 09:26:25;;;;;;;;;;;;;;;5.54;46.76;100446.94;4467313;32;33952;-67
2023/01/29 09:28:52;;;;;;;;;;;;;;;5.21;49.18;100454.56;4469064;32;34316;-66
2023/01/29 09:31:19;;;;;;;;;;;;;;;5.88;46.41;100442.84;4474391;32;34076;-67
2023/01/29 09:33:47;;;;;;;;;;;;;;;5.19;48.26;100448.44;4481526;32;33984;-67
2023/01/29 09:36:14;;;;;;;;;;;;;;;5.54;47.86;100445.16;4473136;32;34053;-66
2023/01/29 09:38:41;;;;;;;;;;;;;;;5.70;47.02;100453.31;4481154;32;34410;-67
2023/01/29 09:41:12;;;;;;;;;;;;;;;6.25;46.35;100455.34;4476088;32;34257;-66
2023/01/29 09:43:50;;;;;;;;;;;;;;;5.94;48.61;100456.75;4470042;32;35233;-67
2023/01/29 09:46:21;;;;;;;;;;;;;;;5.61;47.17;100459.88;4467409;32;33794;-65
2023/01/29 09:48:50;;;;;;;;;;;;;;;6.05;47.07;100456.25;4479221;32;34044;-66
2023/01/29 09:51:24;;;;;;;;;;;;;;;6.63;45.26;100458.03;4454090;32;34337;-66
2023/01/29 09:54:10;;;;;;;;;;;;;;;6.96;45.63;100463.53;4454543;32;34714;-67
2023/01/29 09:56:38;;;;;;;;;;;;;;;6.74;44.47;100463.69;4467422;32;33425;-67
2023/01/29 09:59:07;;;;;;;;;;;;;;;6.60;44.46;100456.38;4469661;32;35309;-68
2023/01/29 10:01:36;;;;;;;;;;;;;;;6.39;44.64;100466.25;4454752;32;34147;-67
2023/01/29 10:04:03;;;;;;;;;;;;;;;6.46;44.66;100472.13;4469158;32;32820;-68
2023/01/29 10:06:34;;;;;;;;;;;;;;;5.80;46.40;100475.91;4468609;31;33460;-67
2023/01/29 10:09:10;;;;;;;;;;;;;;;6.04;45.60;100478.47;4465734;32;32558;-67
2023/01/29 10:12:04;;;;;;;;;;;;;;;6.13;45.15;100470.09;4443876;32;35333;-66
2023/01/29 10:14:50;;;;;;;;;;;;;;;6.09;45.71;100465.81;4468528;32;36567;-66
2023/01/29 10:17:25;;;;;;;;;;;;;;;6.26;43.92;100470.34;4470438;32;33567;-67
2023/01/29 10:19:55;;;;;;;;;;;;;;;6.19;45.74;100475.09;4466278;32;33751;-66
2023/01/29 10:22:35;;;;;;;;;;;;;;;5.88;44.85;100470.28;4455110;32;36238;-67
2023/01/29 10:25:03;;;;;;;;;;;;;;;6.39;43.90;100473.31;4468158;32;34537;-67
2023/01/29 10:27:32;;;;;;;;;;;;;;;5.88;44.30;100472.94;4469842;32;34104;-68
2023/01/29 10:30:01;;;;;;;;;;;;;;;6.38;44.46;100469.81;4466956;31;32883;-68
2023/01/29 10:32:29;;;;;;;;;;;;;;;6.69;43.48;100463.06;4471436;31;34071;-67
2023/01/29 10:34:58;;;;;;;;;;;;;;;5.99;45.42;100469.81;4456295;32;33720;-67
2023/01/29 10:37:30;;;;;;;;;;;;;;;6.24;44.29;100470.44;4454874;31;34410;-67
2023/01/29 10:39:58;;;;;;;;;;;;;;;6.66;44.33;100469.41;4454310;32;33396;-66
2023/01/29 10:42:34;;;;;;;;;;;;;;;6.24;45.85;100472.25;4461383;32;32481;-68
2023/01/29 10:45:04;;;;;;;;;;;;;;;6.55;43.08;100466.41;4461032;32;35035;-67
2023/01/29 10:47:39;;;;;;;;;;;;;;;6.41;43.75;100466.16;4482667;32;32526;-68
2023/01/29 10:50:17;;;;;;;;;;;;;;;5.21;45.96;100463.38;4471430;32;33983;-66
2023/01/29 10:53:00;;;;;;;;;;;;;;;4.94;46.23;100462.69;4454664;32;34571;-68
2023/01/29 10:55:39;;;;;;;;;;;;;;;6.03;44.17;100452.78;4469553;31;34664;-69
2023/01/29 10:58:22;;;;;;;;;;;;;;;6.17;42.99;100452.19;4469479;32;33655;-66
2023/01/29 11:00:49;;;;;;;;;;;;;;;6.52;43.30;100445.25;4464845;32;34186;-66
2023/01/29 11:03:27;;;;;;;;;;;;;;;5.67;44.18;100441.97;4451325;32;34666;-69
2023/01/29 11:06:04;;;;;;;;;;;;;;;5.63;45.54;100435.06;4469796;31;34732;-67
2023/01/29 11:08:40;;;;;;;;;;;;;;;6.83;42.14;100420.69;4472123;32;32424;-67
2023/01/29 11:11:11;;;;;;;;;;;;;;;6.38;43.35;100423.75;4471823;31;32577;-66
2023/01/29 11:13:44;;;;;;;;;;;;;;;6.33;42.26;100425.78;4476100;31;32842;-69
2023/01/29 11:16:11;;;;;;;;;;;;;;;6.58;41.74;100430.78;4452106;32;34401;-67
2023/01/29 11:19:11;;;;;;;;;;;;;;;6.51;42.51;100423.09;4469296;31;33574;-68
2023/01/29 11:21:58;;;;;;;;;;;;;;;6.95;41.36;100422.75;4428241;31;33512;-67
2023/01/29 11:24:25;;;;;;;;;;;;;;;6.63;43.72;100411.00;4473638;31;34856;-68
2023/01/29 11:26:57;;;;;;;;;;;;;;;6.73;42.95;100392.81;4466446;32;35558;-66
2023/01/29 11:29:38;;;;;;;;;;;;;;;6.71;40.98;100392.03;4451743;32;32400;-68
2023/01/29 11:32:07;;;;;;;;;;;;;;;5.79;43.86;100401.59;4457100;32;34082;-69
2023/01/29 11:34:34;;;;;;;;;;;;;;;6.85;41.99;100386.91;4470085;32;34276;-68
2023/01/29 11:37:03;;;;;;;;;;;;;;;5.78;45.19;100391.91;4455373;32;34657;-68
2023/01/29 11:39:31;;;;;;;;;;;;;;;6.95;41.21;100388.16;4456254;32;33482;-67
2023/01/29 11:41:59;;;;;;;;;;;;;;;7.56;39.01;100383.34;4468741;32;34126;-67
2023/01/29 11:44:38;;;;;;;;;;;;;;;7.64;39.24;100382.00;4474225;32;33767;-70
2023/01/29 11:47:10;;;;;;;;;;;;;;;7.40;39.97;100380.59;4470485;32;34629;-66
2023/01/29 11:49:38;;;;;;;;;;;;;;;7.61;37.93;100373.31;4471751;32;34340;-68
2023/01/29 11:52:06;;;;;;;;;;;;;;;7.04;39.15;100362.03;4469399;32;33972;-65
2023/01/29 11:54:36;;;;;;;;;;;;;;;7.04;40.40;100356.72;4461312;32;34174;-68
2023/01/29 11:57:03;;;;;;;;;;;;;;;6.63;40.80;100355.16;4454611;32;35450;-67
2023/01/29 11:59:33;;;;;;;;;;;;;;;6.98;39.61;100360.53;4451564;32;33067;-68
2023/01/29 12:02:13;;;;;;;;;;;;;;;6.84;40.71;100353.25;4466496;32;34088;-66
2023/01/29 12:04:40;;;;;;;;;;;;;;;6.41;42.16;100365.97;4452284;32;34873;-66
2023/01/29 12:07:14;;;;;;;;;;;;;;;7.17;39.60;100353.34;4451761;32;35509;-67
2023/01/29 12:09:48;;;;;;;;;;;;;;;6.96;39.53;100343.78;4469058;32;33506;-67
2023/01/29 12:12:17;;;;;;;;;;;;;;;6.97;40.29;100350.84;4455208;32;33968;-69
2023/01/29 12:14:44;;;;;;;;;;;;;;;7.52;39.23;100349.81;4469656;31;34308;-66
2023/01/29 12:17:17;;;;;;;;;;;;;;;7.70;38.44;100348.81;4472410;32;33829;-68
2023/01/29 12:19:44;;;;;;;;;;;;;;;7.35;39.35;100346.22;4449225;32;32213;-67
2023/01/29 12:22:16;;;;;;;;;;;;;;;7.72;38.65;100341.63;4472152;32;34056;-68
2023/01/29 12:24:51;;;;;;;;;;;;;;;7.50;39.02;100341.87;4472496;32;34590;-67
2023/01/29 12:27:37;;;;;;;;;;;;;;;7.63;37.20;100332.28;4453149;32;32726;-67
2023/01/29 12:30:19;;;;;;;;;;;;;;;7.77;37.49;100336.03;4458089;32;33747;-66
2023/01/29 12:32:48;;;;;;;;;;;;;;;7.39;38.61;100328.28;4455730;32;35234;-67
2023/01/29 12:35:16;;;;;;;;;;;;;;;6.89;38.93;100332.56;4455908;32;33680;-69
2023/01/29 12:37:52;;;;;;;;;;;;;;;7.70;38.75;100328.37;4468465;32;35411;-66
2023/01/29 12:40:20;;;;;;;;;;;;;;;6.97;39.09;100330.41;4467044;32;32712;-66
2023/01/29 12:42:48;;;;;;;;;;;;;;;7.65;38.44;100324.25;4453580;32;34892;-68
2023/01/29 12:45:17;;;;;;;;;;;;;;;7.35;38.95;100324.91;4450529;32;35357;-67
2023/01/29 12:47:50;;;;;;;;;;;;;;;7.06;39.98;100336.19;4454814;32;34646;-66
2023/01/29 12:50:27;;;;;;;;;;;;;;;6.79;40.66;100327.81;4471239;32;31616;-66
2023/01/29 12:52:56;;;;;;;;;;;;;;;7.36;38.44;100328.44;4456213;32;32954;-68
2023/01/29 12:55:42;;;;;;;;;;;;;;;7.26;37.86;100322.72;4471498;32;34506;-66
2023/01/29 12:58:13;;;;;;;;;;;;;;;7.17;39.74;100308.09;4454455;32;34672;-67
2023/01/29 13:00:44;;;;;;;;;;;;;;;7.08;38.82;100318.34;4467332;32;32691;-68
2023/01/29 13:03:30;;;;;;;;;;;;;;;7.19;40.35;100314.22;4461231;32;34278;-66
2023/01/29 13:05:59;;;;;;;;;;;;;;;7.59;39.97;100303.25;4474929;32;34165;-67
2023/01/29 13:08:28;;;;;;;;;;;;;;;7.57;38.74;100303.31;4472952;32;35525;-68
2023/01/29 13:10:55;;;;;;;;;;;;;;;7.32;39.81;100293.12;4466874;31;33508;-68
2023/01/29 13:13:41;;;;;;;;;;;;;;;7.76;37.88;100295.19;4468494;32;34393;-68
2023/01/29 13:16:10;;;;;;;;;;;;;;;7.61;38.46;100290.72;4466564;31;34263;-68
2023/01/29 13:18:53;;;;;;;;;;;;;;;6.67;39.25;100279.56;4457522;32;34248;-66
2023/01/29 13:21:26;;;;;;;;;;;;;;;6.84;39.51;100280.53;4465222;32;32810;-66
2023/01/29 13:24:01;;;;;;;;;;;;;;;7.36;38.91;100276.03;4456183;32;34401;-68
2023/01/29 13:26:29;;;;;;;;;;;;;;;7.84;37.40;100281.47;4466884;32;35269;-67
2023/01/29 13:28:57;;;;;;;;;;;;;;;8.40;36.91;100280.13;4466976;32;34638;-67
2023/01/29 13:31:27;;;;;;;;;;;;;;;8.26;37.33;100264.88;4455223;32;35540;-68
2023/01/29 13:34:00;;;;;;;;;;;;;;;8.16;36.86;100259.19;4467089;32;35285;-66
2023/01/29 13:36:28;;;;;;;;;;;;;;;8.56;36.04;100250.75;4473369;32;35455;-68
2023/01/29 13:38:58;;;;;;;;;;;;;;;8.68;36.29;100259.84;4471439;32;34693;-67